createdAt,value
2019-04-01T00:01:42.160Z,8.97
2019-04-01T00:06:37.744Z,10.27
2019-04-01T00:11:32.762Z,9.47
2019-04-01T00:16:30.636Z,8.03
2019-04-01T00:21:26.434Z,9.07
2019-04-01T00:26:21.177Z,9.03
2019-04-01T00:31:23.727Z,10.20
2019-04-01T00:36:24.621Z,11.00
2019-04-01T00:41:36.721Z,11.87
2019-04-01T00:46:33.095Z,9.50
2019-04-01T00:51:30.706Z,9.80
2019-04-01T00:56:25.652Z,11.67
2019-04-01T01:01:20.739Z,8.70
2019-04-01T01:06:15.516Z,10.00
2019-04-01T01:11:10.230Z,9.10
2019-04-01T01:16:05.038Z,9.97
2019-04-01T01:21:02.790Z,9.03
2019-04-01T01:25:57.533Z,12.33
2019-04-01T01:30:52.675Z,9.27
2019-04-01T01:35:55.150Z,7.13
2019-04-01T01:40:51.919Z,13.97
2019-04-01T01:46:12.488Z,7.97
2019-04-01T01:51:19.674Z,8.63
2019-04-01T01:56:16.090Z,10.63
2019-04-01T02:01:10.841Z,8.73
2019-04-01T02:06:05.569Z,9.47
2019-04-01T02:11:00.316Z,8.93
2019-04-01T02:15:55.058Z,8.27
2019-04-01T02:20:54.852Z,9.17
2019-04-01T02:25:49.593Z,9.90
2019-04-01T02:30:44.610Z,8.10
2019-04-01T02:35:52.065Z,8.70
2019-04-01T02:40:46.795Z,8.67
2019-04-01T02:45:50.581Z,10.47
2019-04-01T02:50:45.395Z,8.30
2019-04-01T02:55:42.856Z,10.13
2019-04-01T03:00:44.936Z,9.83
2019-04-01T03:05:40.343Z,11.20
2019-04-01T03:10:45.570Z,9.10
2019-04-01T03:15:53.759Z,9.07
2019-04-01T03:20:48.484Z,9.37
2019-04-01T03:26:01.143Z,8.20
2019-04-01T03:30:53.863Z,7.27
2019-04-01T03:35:51.624Z,6.13
2019-04-01T03:40:46.365Z,12.40
2019-04-01T03:45:43.854Z,8.93
2019-04-01T03:50:38.598Z,10.60
2019-04-01T03:55:39.870Z,7.43
2019-04-01T04:00:34.604Z,7.00
2019-04-01T04:05:31.192Z,7.90
2019-04-01T04:10:25.931Z,12.30
2019-04-01T04:15:23.179Z,10.33
2019-04-01T04:20:25.599Z,6.17
2019-04-01T04:25:21.123Z,7.70
2019-04-01T04:30:27.100Z,7.97
2019-04-01T04:35:22.106Z,5.87
2019-04-01T04:40:28.347Z,8.73
2019-04-01T04:45:23.866Z,9.07
2019-04-01T04:50:24.271Z,7.00
2019-04-01T04:55:19.255Z,9.07
2019-04-01T05:00:17.147Z,6.33
2019-04-01T05:05:11.982Z,6.10
2019-04-01T05:10:07.384Z,6.57
2019-04-01T05:15:03.195Z,8.77
2019-04-01T05:20:04.177Z,9.40
2019-04-01T05:25:01.386Z,6.93
2019-04-01T05:29:56.566Z,10.10
2019-04-01T05:34:55.665Z,8.67
2019-04-01T05:39:50.668Z,7.63
2019-04-01T05:44:45.680Z,7.70
2019-04-01T05:49:40.487Z,4.93
2019-04-01T05:54:35.257Z,10.17
2019-04-01T05:59:30.332Z,7.87
2019-04-01T06:04:25.138Z,6.60
2019-04-01T06:09:20.163Z,6.97
2019-04-01T06:14:21.117Z,6.40
2019-04-01T06:19:15.978Z,6.50
2019-04-01T06:24:12.817Z,8.60
2019-04-01T06:29:07.561Z,11.90
2019-04-01T06:34:03.434Z,8.03
2019-04-01T06:39:01.608Z,7.60
2019-04-01T06:43:56.691Z,6.97
2019-04-01T06:48:51.762Z,7.33
2019-04-01T06:53:46.591Z,7.53
2019-04-01T06:58:41.351Z,6.50
2019-04-01T07:03:36.150Z,7.80
2019-04-01T07:08:31.238Z,8.33
2019-04-01T07:13:26.063Z,6.77
2019-04-01T07:18:20.857Z,9.47
2019-04-01T07:23:15.956Z,10.20
2019-04-01T07:28:13.905Z,7.87
2019-04-01T07:33:08.750Z,8.23
2019-04-01T07:38:04.592Z,4.53
2019-04-01T07:43:00.399Z,6.20
2019-04-01T07:47:55.220Z,7.40
2019-04-01T07:52:50.357Z,6.73
2019-04-01T07:57:45.395Z,8.20
2019-04-01T08:02:40.402Z,6.30
2019-04-01T08:07:35.309Z,7.53
2019-04-01T08:12:31.224Z,7.63
2019-04-01T08:17:31.890Z,5.40
2019-04-01T08:22:33.130Z,10.60
2019-04-01T08:27:27.917Z,6.97
2019-04-01T08:32:22.694Z,8.57
2019-04-01T08:37:17.460Z,8.93
2019-04-01T08:42:12.617Z,7.23
2019-04-01T08:47:10.589Z,6.80
2019-04-01T08:52:05.432Z,6.30
2019-04-01T08:57:00.296Z,7.27
2019-04-01T09:02:01.478Z,8.33
2019-04-01T09:06:56.222Z,9.10
2019-04-01T09:11:52.768Z,9.90
2019-04-01T09:16:47.618Z,11.83
2019-04-01T09:21:42.390Z,11.00
2019-04-01T09:26:37.191Z,16.33
2019-04-01T09:31:32.009Z,10.50
2019-04-01T09:36:26.867Z,12.33
2019-04-01T09:41:21.732Z,14.03
2019-04-01T09:46:16.662Z,12.03
2019-04-01T09:51:11.759Z,12.33
2019-04-01T09:56:06.852Z,15.40
2019-04-01T10:01:01.712Z,13.80
2019-04-01T10:05:56.593Z,14.37
2019-04-01T10:10:51.630Z,19.17
2019-04-01T10:15:46.470Z,15.10
2019-04-01T10:20:42.285Z,14.97
2019-04-01T10:25:37.053Z,13.87
2019-04-01T10:30:31.934Z,22.63
2019-04-01T10:35:27.090Z,14.90
2019-04-01T10:40:21.958Z,16.00
2019-04-01T10:45:18.115Z,17.93
2019-04-01T10:50:14.084Z,15.30
2019-04-01T10:55:11.541Z,15.93
2019-04-01T11:00:07.955Z,15.83
2019-04-01T11:05:04.294Z,14.10
2019-04-01T11:09:59.182Z,13.93
2019-04-01T11:14:54.057Z,15.27
2019-04-01T11:19:52.211Z,15.40
2019-04-01T11:24:47.176Z,11.87
2019-04-01T11:29:42.363Z,15.20
2019-04-01T11:34:40.319Z,15.40
2019-04-01T11:39:36.222Z,11.57
2019-04-01T11:44:31.153Z,13.07
2019-04-01T11:49:26.011Z,12.30
2019-04-01T11:54:22.897Z,14.13
2019-04-01T11:59:18.282Z,13.70
2019-04-01T12:04:13.073Z,15.97
2019-04-01T12:09:14.102Z,12.17
2019-04-01T12:14:08.936Z,16.40
2019-04-01T12:19:12.466Z,13.57
2019-04-01T12:24:43.572Z,13.80
2019-04-01T12:29:38.465Z,12.10
2019-04-01T12:34:33.543Z,16.07
2019-04-01T12:39:54.863Z,13.73
2019-04-01T12:45:11.378Z,12.33
2019-04-01T12:50:19.710Z,11.27
2019-04-01T12:55:37.202Z,12.47
2019-04-01T13:01:08.725Z,12.40
2019-04-01T13:07:08.456Z,11.13
2019-04-01T13:11:25.829Z,12.33
2019-04-01T13:16:32.066Z,10.00
2019-04-01T13:21:44.081Z,9.70
2019-04-01T13:27:39.745Z,12.53
2019-04-01T13:38:39.277Z,12.20
2019-04-01T13:43:51.242Z,11.33
2019-04-01T13:49:03.986Z,11.40
2019-04-01T13:59:27.648Z,16.70
2019-04-01T14:04:22.794Z,13.07
2019-04-01T14:09:31.020Z,11.73
2019-04-01T14:14:35.844Z,12.77
2019-04-01T14:19:30.678Z,12.67
2019-04-01T14:24:25.573Z,11.73
2019-04-01T14:29:20.424Z,12.80
2019-04-01T14:34:22.920Z,13.27
2019-04-01T14:39:21.872Z,13.13
2019-04-01T14:44:27.019Z,10.10
2019-04-01T14:49:30.967Z,13.80
2019-04-01T14:54:25.777Z,12.07
2019-04-01T14:59:20.543Z,11.47
2019-04-01T15:04:15.466Z,13.30
2019-04-01T15:09:38.279Z,15.80
2019-04-01T15:14:38.788Z,13.57
2019-04-01T15:19:33.924Z,11.87
2019-04-01T15:24:29.082Z,11.00
2019-04-01T15:29:23.864Z,9.77
2019-04-01T15:34:20.399Z,9.73
2019-04-01T15:39:22.301Z,11.70
2019-04-01T15:44:17.055Z,10.40
2019-04-01T15:49:11.811Z,10.87
2019-04-01T15:54:06.683Z,10.27
2019-04-01T15:59:01.435Z,12.40
2019-04-01T16:03:56.166Z,9.60
2019-04-01T16:08:50.919Z,9.40
2019-04-01T16:13:45.675Z,10.27
2019-04-01T16:18:40.958Z,10.43
2019-04-01T16:23:36.934Z,11.07
2019-04-01T16:28:31.742Z,10.20
2019-04-01T16:33:26.496Z,11.60
2019-04-01T16:38:21.345Z,13.67
2019-04-01T16:43:30.075Z,11.60
2019-04-01T16:48:26.888Z,9.23
2019-04-01T16:53:21.962Z,10.30
2019-04-01T16:58:16.730Z,10.27
2019-04-01T17:03:13.880Z,10.70
2019-04-01T17:08:19.412Z,10.83
2019-04-01T17:13:14.153Z,9.27
2019-04-01T17:18:09.850Z,8.10
2019-04-01T17:23:04.957Z,9.80
2019-04-01T17:27:59.834Z,10.73
2019-04-01T17:32:54.640Z,11.87
2019-04-01T17:37:49.416Z,14.63
2019-04-01T17:42:50.482Z,10.23
2019-04-01T17:47:46.321Z,11.63
2019-04-01T17:52:50.132Z,12.83
2019-04-01T17:57:45.312Z,10.67
2019-04-01T18:02:40.938Z,12.23
2019-04-01T18:07:36.232Z,13.77
2019-04-01T18:12:31.191Z,13.10
2019-04-01T18:17:26.039Z,15.10
2019-04-01T18:22:21.144Z,11.00
2019-04-01T18:27:19.015Z,14.00
2019-04-01T18:32:14.271Z,14.23
2019-04-01T18:37:10.088Z,14.17
2019-04-01T18:42:05.179Z,13.53
2019-04-01T18:47:03.806Z,11.97
2019-04-01T18:52:01.881Z,10.27
2019-04-01T18:57:10.638Z,15.47
2019-04-01T19:02:15.026Z,22.53
2019-04-01T19:07:09.879Z,12.50
2019-04-01T19:12:06.866Z,12.80
2019-04-01T19:17:11.181Z,12.43
2019-04-01T19:22:05.989Z,14.53
2019-04-01T19:27:00.935Z,10.00
2019-04-01T19:31:56.009Z,11.57
2019-04-01T19:36:50.835Z,14.53
2019-04-01T19:41:51.496Z,9.87
2019-04-01T19:46:46.580Z,11.63
2019-04-01T19:51:41.663Z,10.37
2019-04-01T19:56:37.522Z,12.90
2019-04-01T20:01:32.387Z,12.00
2019-04-01T20:06:27.188Z,11.43
2019-04-01T20:11:21.980Z,13.73
2019-04-01T20:16:17.207Z,14.70
2019-04-01T20:21:16.308Z,12.67
2019-04-01T20:26:12.136Z,16.53
2019-04-01T20:31:07.063Z,11.47
2019-04-01T20:36:01.903Z,13.10
2019-04-01T20:40:56.685Z,12.30
2019-04-01T20:45:51.422Z,13.07
2019-04-01T20:50:46.502Z,14.20
2019-04-01T20:55:48.027Z,16.83
2019-04-01T21:00:38.883Z,15.33
2019-04-01T21:05:33.803Z,29.40
2019-04-01T21:10:29.156Z,13.73
2019-04-01T21:15:23.976Z,15.90
2019-04-01T21:20:22.416Z,13.87
2019-04-01T21:25:18.442Z,13.20
2019-04-01T21:30:13.435Z,16.03
2019-04-01T21:35:09.474Z,19.50
2019-04-01T21:40:05.424Z,15.23
2019-04-01T21:45:00.185Z,16.97
2019-04-01T21:50:06.166Z,15.63
2019-04-01T21:55:01.210Z,17.13
2019-04-01T21:59:56.238Z,14.57
2019-04-01T22:04:52.432Z,13.27
2019-04-01T22:09:47.183Z,14.53
2019-04-01T22:14:42.274Z,13.63
2019-04-01T22:19:39.292Z,16.13
2019-04-01T22:24:34.359Z,15.87
2019-04-01T22:29:29.317Z,13.87
2019-04-01T22:34:24.069Z,14.93
2019-04-01T22:39:26.880Z,12.40
2019-04-01T22:44:18.292Z,13.07
2019-04-01T22:49:15.350Z,12.80
2019-04-01T22:54:10.090Z,13.13
2019-04-01T22:59:05.242Z,14.37
2019-04-01T23:04:00.022Z,14.73
2019-04-01T23:08:55.771Z,13.40
2019-04-01T23:13:50.514Z,13.50
2019-04-01T23:18:45.525Z,14.80
2019-04-01T23:23:40.302Z,11.73
2019-04-01T23:28:38.206Z,12.73
2019-04-01T23:33:33.222Z,14.80
2019-04-01T23:38:28.492Z,14.60
2019-04-01T23:43:23.233Z,12.53
2019-04-01T23:48:18.319Z,12.97
2019-04-01T23:53:21.114Z,13.03
2019-04-01T23:58:15.869Z,15.77
